createdAt,value
2023-02-02T00:02:45.950Z,3.41
2023-02-02T00:05:49.381Z,3.43
2023-02-02T00:08:51.224Z,3.40
2023-02-02T00:11:52.796Z,3.39
2023-02-02T00:14:56.184Z,3.38
2023-02-02T00:17:57.661Z,3.35
2023-02-02T00:20:59.333Z,3.32
2023-02-02T00:24:01.669Z,3.31
2023-02-02T00:27:03.457Z,3.30
2023-02-02T00:30:07.201Z,3.27
2023-02-02T00:33:09.185Z,3.23
2023-02-02T00:36:10.704Z,3.22
2023-02-02T00:39:14.439Z,3.20
2023-02-02T00:42:16.063Z,3.19
2023-02-02T00:45:19.268Z,3.20
2023-02-02T00:48:20.983Z,3.17
2023-02-02T00:51:22.511Z,3.16
2023-02-02T00:54:24.311Z,3.16
2023-02-02T00:57:25.860Z,3.13
2023-02-02T01:00:29.482Z,3.15
2023-02-02T01:03:31.526Z,3.17
2023-02-02T01:06:33.248Z,3.16
2023-02-02T01:09:34.808Z,3.12
2023-02-02T01:12:36.574Z,3.14
2023-02-02T01:15:39.463Z,3.15
2023-02-02T01:18:41.117Z,3.13
2023-02-02T01:21:42.993Z,3.13
2023-02-02T01:24:44.505Z,3.11
2023-02-02T01:27:47.246Z,3.10
2023-02-02T01:30:50.259Z,3.08
2023-02-02T01:33:52.323Z,3.07
2023-02-02T01:36:54.989Z,3.05
2023-02-02T01:39:56.553Z,3.07
2023-02-02T01:42:58.106Z,3.07
2023-02-02T01:46:01.706Z,3.09
2023-02-02T01:49:06.147Z,3.11
2023-02-02T01:52:10.106Z,3.09
2023-02-02T01:55:12.924Z,3.09
2023-02-02T01:58:15.723Z,3.09
2023-02-02T02:01:18.841Z,3.07
2023-02-02T02:04:21.077Z,3.05
2023-02-02T02:07:23.674Z,3.02
2023-02-02T02:10:25.661Z,3.00
2023-02-02T02:14:04.124Z,2.96
2023-02-02T02:17:21.942Z,2.95
2023-02-02T02:20:53.317Z,2.93
2023-02-02T02:24:25.223Z,2.94
2023-02-02T02:27:47.836Z,2.94
2023-02-02T02:31:08.269Z,3.00
2023-02-02T02:34:16.154Z,2.99
2023-02-02T02:37:23.986Z,3.00
2023-02-02T02:40:29.169Z,2.99
2023-02-02T02:43:32.996Z,3.04
2023-02-02T02:46:35.205Z,3.03
2023-02-02T02:49:43.541Z,3.03
2023-02-02T02:52:45.774Z,3.09
2023-02-02T02:55:50.113Z,3.14
2023-02-02T02:58:55.341Z,3.13
2023-02-02T03:02:01.387Z,3.13
2023-02-02T03:05:10.828Z,3.16
2023-02-02T03:08:15.884Z,3.16
2023-02-02T03:11:18.020Z,3.12
2023-02-02T03:14:19.628Z,3.13
2023-02-02T03:17:21.238Z,3.17
2023-02-02T03:20:24.100Z,3.17
2023-02-02T03:23:26.010Z,3.18
2023-02-02T03:26:29.237Z,3.19
2023-02-02T03:29:30.893Z,3.20
2023-02-02T03:32:32.579Z,3.23
2023-02-02T03:35:35.484Z,3.22
2023-02-02T03:38:37.217Z,3.21
2023-02-02T03:41:38.780Z,3.19
2023-02-02T03:44:40.463Z,3.17
2023-02-02T03:47:42.038Z,3.21
2023-02-02T03:50:45.101Z,3.22
2023-02-02T03:53:50.142Z,3.23
2023-02-02T03:56:51.744Z,3.22
2023-02-02T03:59:53.336Z,3.21
2023-02-02T04:02:55.077Z,3.25
2023-02-02T04:05:58.122Z,3.26
2023-02-02T04:08:59.687Z,3.25
2023-02-02T04:12:01.294Z,3.24
2023-02-02T04:15:03.033Z,3.24
2023-02-02T04:18:04.755Z,3.26
2023-02-02T04:21:08.586Z,3.29
2023-02-02T04:24:11.396Z,3.29
2023-02-02T04:27:13.359Z,3.30
2023-02-02T04:30:15.079Z,3.31
2023-02-02T04:33:16.666Z,3.31
2023-02-02T04:36:19.731Z,3.31
2023-02-02T04:39:21.423Z,3.34
2023-02-02T04:42:23.320Z,3.37
2023-02-02T04:45:25.492Z,3.37
2023-02-02T04:48:27.454Z,3.38
2023-02-02T04:51:30.457Z,3.39
2023-02-02T04:54:34.055Z,3.37
2023-02-02T04:57:35.648Z,3.37
2023-02-02T05:00:37.413Z,3.38
2023-02-02T05:03:39.360Z,3.39
2023-02-02T05:06:42.406Z,3.39
2023-02-02T05:09:43.907Z,3.38
2023-02-02T05:12:45.535Z,3.38
2023-02-02T05:15:47.840Z,3.39
2023-02-02T05:18:50.348Z,3.37
2023-02-02T05:21:54.686Z,3.39
2023-02-02T05:24:56.247Z,3.38
2023-02-02T05:27:57.953Z,3.39
2023-02-02T05:30:59.589Z,3.38
2023-02-02T05:34:01.234Z,3.37
2023-02-02T05:37:04.419Z,3.38
2023-02-02T05:40:06.519Z,3.43
2023-02-02T05:43:08.184Z,3.47
2023-02-02T05:46:09.813Z,3.46
2023-02-02T05:49:12.839Z,3.47
2023-02-02T05:52:18.102Z,3.47
2023-02-02T05:55:20.207Z,3.48
2023-02-02T05:58:22.006Z,3.48
2023-02-02T06:01:23.733Z,3.49
2023-02-02T06:04:25.573Z,3.48
2023-02-02T06:07:28.739Z,3.46
2023-02-02T06:10:31.544Z,3.46
2023-02-02T06:13:33.278Z,3.44
2023-02-02T06:16:35.089Z,3.43
2023-02-02T06:19:36.780Z,3.38
2023-02-02T06:22:40.071Z,3.37
2023-02-02T06:25:41.678Z,3.35
2023-02-02T06:28:43.397Z,3.32
2023-02-02T06:31:45.298Z,3.31
2023-02-02T06:34:47.130Z,3.30
2023-02-02T06:37:50.041Z,3.27
2023-02-02T06:40:51.613Z,3.22
2023-02-02T06:43:53.970Z,3.17
2023-02-02T06:46:55.511Z,3.12
2023-02-02T06:49:57.067Z,3.10
2023-02-02T06:53:00.189Z,3.07
2023-02-02T06:56:03.082Z,3.02
2023-02-02T06:59:04.707Z,2.98
2023-02-02T07:02:06.339Z,2.94
2023-02-02T07:05:08.301Z,2.89
2023-02-02T07:08:11.355Z,2.86
2023-02-02T07:11:16.499Z,2.84
2023-02-02T07:14:18.499Z,2.76
2023-02-02T07:17:20.063Z,2.74
2023-02-02T07:20:21.697Z,2.73
2023-02-02T07:23:24.829Z,2.72
2023-02-02T07:26:27.732Z,2.65
2023-02-02T07:29:29.428Z,2.69
2023-02-02T07:32:31.183Z,2.66
2023-02-02T07:35:32.697Z,2.61
2023-02-02T07:38:35.768Z,2.59
2023-02-02T07:41:37.421Z,2.57
2023-02-02T07:44:39.508Z,2.58
2023-02-02T07:47:41.035Z,2.57
2023-02-02T07:50:42.635Z,2.58
2023-02-02T07:53:46.131Z,2.59
2023-02-02T07:56:47.974Z,2.59
2023-02-02T07:59:50.492Z,2.57
2023-02-02T08:02:52.120Z,2.56
2023-02-02T08:05:53.755Z,2.56
2023-02-02T08:08:56.845Z,2.55
2023-02-02T08:12:01.894Z,2.55
2023-02-02T08:15:03.871Z,2.55
2023-02-02T08:18:05.491Z,2.59
2023-02-02T08:21:11.148Z,2.60
2023-02-02T08:24:14.251Z,2.57
2023-02-02T08:27:16.957Z,2.56
2023-02-02T08:30:18.736Z,2.54
2023-02-02T08:33:20.557Z,2.50
2023-02-02T08:36:22.813Z,2.46
2023-02-02T08:39:25.938Z,2.47
2023-02-02T08:42:37.983Z,2.45
2023-02-02T08:46:02.972Z,2.51
2023-02-02T08:49:04.421Z,2.50
2023-02-02T08:52:09.429Z,2.51
2023-02-02T08:55:11.120Z,2.51
2023-02-02T08:58:14.773Z,2.47
2023-02-02T09:01:17.519Z,2.44
2023-02-02T09:04:19.186Z,2.45
2023-02-02T09:07:21.290Z,2.44
2023-02-02T09:10:23.204Z,2.42
2023-02-02T09:13:28.819Z,2.43
2023-02-02T09:16:30.585Z,2.42
2023-02-02T09:19:32.491Z,2.41
2023-02-02T09:22:34.069Z,2.46
2023-02-02T09:25:35.804Z,2.47
2023-02-02T09:28:39.375Z,2.54
2023-02-02T09:31:41.522Z,2.54
2023-02-02T09:34:43.248Z,2.53
2023-02-02T09:37:45.573Z,2.59
2023-02-02T09:40:47.297Z,2.60
2023-02-02T09:43:53.925Z,2.63
2023-02-02T09:47:00.383Z,2.65
2023-02-02T09:50:04.141Z,2.64
2023-02-02T09:53:11.578Z,2.65
2023-02-02T09:56:18.777Z,2.69
2023-02-02T09:59:24.517Z,2.64
2023-02-02T10:02:27.861Z,2.65
2023-02-02T10:05:32.482Z,2.64
2023-02-02T10:08:36.702Z,2.66
2023-02-02T10:11:42.553Z,2.68
2023-02-02T10:14:51.084Z,2.67
2023-02-02T10:17:55.373Z,2.70
2023-02-02T10:20:58.934Z,2.76
2023-02-02T10:24:02.555Z,2.83
2023-02-02T10:27:07.143Z,2.83
2023-02-02T10:30:16.212Z,2.84
2023-02-02T10:33:24.333Z,2.81
2023-02-02T10:36:29.234Z,2.87
2023-02-02T10:39:38.778Z,2.87
2023-02-02T10:43:05.707Z,2.91
2023-02-02T10:46:13.508Z,2.89
2023-02-02T10:49:17.136Z,2.92
2023-02-02T10:52:21.022Z,2.99
2023-02-02T10:55:28.768Z,3.01
2023-02-02T10:58:32.952Z,3.01
2023-02-02T11:01:36.054Z,3.04
2023-02-02T11:04:56.389Z,3.00
2023-02-02T11:07:57.947Z,3.07
2023-02-02T11:11:08.838Z,3.07
2023-02-02T11:14:13.534Z,3.04
2023-02-02T11:17:20.371Z,3.08
2023-02-02T11:20:23.790Z,3.10
2023-02-02T11:23:27.833Z,3.11
2023-02-02T11:26:41.015Z,3.11
2023-02-02T11:29:45.215Z,3.16
2023-02-02T11:32:49.747Z,3.18
2023-02-02T11:35:55.602Z,3.17
2023-02-02T11:39:14.403Z,3.15
2023-02-02T11:42:17.073Z,3.17
2023-02-02T11:45:20.798Z,3.19
2023-02-02T11:48:26.894Z,3.24
2023-02-02T11:51:29.745Z,3.20
2023-02-02T11:54:33.908Z,3.17
2023-02-02T11:57:35.596Z,3.22
2023-02-02T12:00:45.734Z,3.24
2023-02-02T12:03:49.440Z,3.22
2023-02-02T12:06:50.995Z,3.22
2023-02-02T12:09:52.989Z,3.28
2023-02-02T12:13:00.604Z,3.30
2023-02-02T12:16:08.849Z,3.29
2023-02-02T12:19:22.754Z,3.31
2023-02-02T12:22:35.421Z,3.30
2023-02-02T12:25:55.162Z,3.34
2023-02-02T12:29:11.864Z,3.37
2023-02-02T12:32:21.322Z,3.43
2023-02-02T12:35:30.824Z,3.32
2023-02-02T12:38:45.382Z,3.36
2023-02-02T12:42:04.198Z,3.39
2023-02-02T12:45:14.261Z,3.41
2023-02-02T12:48:27.203Z,3.42
2023-02-02T12:51:36.333Z,3.45
2023-02-02T12:54:51.838Z,3.47
2023-02-02T12:58:07.382Z,3.53
2023-02-02T13:01:20.286Z,3.54
2023-02-02T13:04:31.223Z,3.59
2023-02-02T13:07:39.931Z,3.61
2023-02-02T13:10:43.902Z,3.62
2023-02-02T13:13:45.504Z,3.62
2023-02-02T13:16:50.599Z,3.63
2023-02-02T13:19:54.728Z,3.65
2023-02-02T13:23:02.684Z,3.64
2023-02-02T13:26:06.425Z,3.64
2023-02-02T13:29:14.200Z,3.59
2023-02-02T13:32:20.239Z,3.55
2023-02-02T13:35:25.422Z,3.54
2023-02-02T13:38:34.861Z,3.55
2023-02-02T13:41:37.010Z,3.56
2023-02-02T13:44:42.086Z,3.59
2023-02-02T13:47:46.516Z,3.63
2023-02-02T13:50:54.734Z,3.62
2023-02-02T13:54:04.516Z,3.66
2023-02-02T13:57:17.729Z,3.63
2023-02-02T14:00:21.488Z,3.58
2023-02-02T14:03:33.752Z,3.58
2023-02-02T14:06:50.742Z,3.53
2023-02-02T14:09:53.891Z,3.51
2023-02-02T14:12:56.035Z,3.49
2023-02-02T14:15:58.284Z,3.45
2023-02-02T14:19:00.259Z,3.42
2023-02-02T14:22:03.898Z,3.37
2023-02-02T14:25:20.621Z,3.29
2023-02-02T14:28:40.377Z,3.27
2023-02-02T14:31:52.294Z,3.22
2023-02-02T14:34:55.628Z,3.18
2023-02-02T14:37:59.384Z,3.20
2023-02-02T14:41:05.679Z,3.16
2023-02-02T14:44:07.233Z,3.12
2023-02-02T14:47:23.706Z,3.09
2023-02-02T14:50:31.135Z,3.09
2023-02-02T14:53:33.852Z,3.03
2023-02-02T14:56:40.204Z,3.01
2023-02-02T14:59:46.781Z,3.01
2023-02-02T15:02:53.516Z,2.95
2023-02-02T15:06:03.175Z,2.92
2023-02-02T15:09:23.538Z,2.92
2023-02-02T15:12:29.983Z,2.94
2023-02-02T15:15:34.186Z,2.96
2023-02-02T15:18:40.769Z,2.93
2023-02-02T15:21:46.110Z,2.88
2023-02-02T15:24:48.514Z,2.85
2023-02-02T15:27:56.807Z,2.83
2023-02-02T15:31:01.138Z,2.84
2023-02-02T15:34:04.981Z,2.78
2023-02-02T15:37:12.443Z,2.76
2023-02-02T15:40:15.040Z,2.73
2023-02-02T15:43:17.790Z,2.74
2023-02-02T15:46:24.606Z,2.74
2023-02-02T15:49:34.392Z,2.68
2023-02-02T15:52:46.426Z,2.61
2023-02-02T15:55:48.427Z,2.61
2023-02-02T15:58:51.490Z,2.55
2023-02-02T16:01:57.830Z,2.52
2023-02-02T16:04:59.539Z,2.47
2023-02-02T16:08:06.014Z,2.45
2023-02-02T16:11:09.817Z,2.42
2023-02-02T16:14:17.561Z,2.42
2023-02-02T16:17:21.537Z,2.43
2023-02-02T16:20:23.255Z,2.46
2023-02-02T16:23:30.533Z,2.47
2023-02-02T16:26:33.387Z,2.44
2023-02-02T16:29:35.287Z,2.44
2023-02-02T16:32:39.293Z,2.42
2023-02-02T16:35:41.987Z,2.48
2023-02-02T16:38:45.554Z,2.53
2023-02-02T16:41:49.336Z,2.54
2023-02-02T16:44:51.064Z,2.55
2023-02-02T16:47:53.168Z,2.56
2023-02-02T16:51:06.496Z,2.56
2023-02-02T16:54:17.990Z,2.56
2023-02-02T16:57:21.744Z,2.56
2023-02-02T17:00:24.724Z,2.54
2023-02-02T17:03:31.310Z,2.55
2023-02-02T17:06:50.079Z,2.54
2023-02-02T17:10:09.212Z,2.54
2023-02-02T17:13:25.797Z,2.51
2023-02-02T17:16:28.988Z,2.48
2023-02-02T17:19:31.178Z,2.44
2023-02-02T17:22:36.604Z,2.42
2023-02-02T17:25:40.830Z,2.40
2023-02-02T17:28:43.458Z,2.36
2023-02-02T17:31:46.665Z,2.34
2023-02-02T17:34:48.208Z,2.30
2023-02-02T17:37:51.755Z,2.29
2023-02-02T17:40:54.238Z,2.25
2023-02-02T17:43:55.806Z,2.25
2023-02-02T17:46:58.714Z,2.28
2023-02-02T17:50:01.066Z,2.29
2023-02-02T17:53:02.649Z,2.29
2023-02-02T17:56:04.672Z,2.29
2023-02-02T17:59:06.397Z,2.33
2023-02-02T18:02:12.440Z,2.33
2023-02-02T18:05:15.428Z,2.33
2023-02-02T18:08:17.060Z,2.35
2023-02-02T18:11:18.683Z,2.38
2023-02-02T18:14:20.234Z,2.37
2023-02-02T18:17:23.269Z,2.37
2023-02-02T18:20:24.858Z,2.40
2023-02-02T18:23:29.281Z,2.43
2023-02-02T18:26:32.604Z,2.42
2023-02-02T18:29:34.370Z,2.43
2023-02-02T18:32:38.305Z,2.44
2023-02-02T18:35:41.098Z,2.44
2023-02-02T18:38:45.217Z,2.47
2023-02-02T18:41:46.997Z,2.47
2023-02-02T18:44:48.579Z,2.47
2023-02-02T18:47:51.782Z,2.47
2023-02-02T18:50:53.538Z,2.47
2023-02-02T18:54:00.242Z,2.46
2023-02-02T18:57:09.808Z,2.46
2023-02-02T19:00:12.159Z,2.50
2023-02-02T19:03:15.246Z,2.55
2023-02-02T19:06:36.350Z,2.50
2023-02-02T19:09:38.038Z,2.52
2023-02-02T19:12:39.704Z,2.53
2023-02-02T19:15:42.988Z,2.54
2023-02-02T19:18:46.319Z,2.53
2023-02-02T19:21:48.040Z,2.52
2023-02-02T19:24:49.797Z,2.53
2023-02-02T19:27:51.371Z,2.56
2023-02-02T19:30:53.939Z,2.60
2023-02-02T19:33:58.166Z,2.57
2023-02-02T19:37:01.320Z,2.58
2023-02-02T19:40:14.357Z,2.56
2023-02-02T19:43:21.745Z,2.60
2023-02-02T19:46:25.079Z,2.63
2023-02-02T19:49:31.386Z,2.63
2023-02-02T19:52:33.970Z,2.65
2023-02-02T19:55:37.044Z,2.69
2023-02-02T19:58:38.668Z,2.78
2023-02-02T20:01:40.692Z,2.84
2023-02-02T20:04:47.019Z,2.93
2023-02-02T20:07:52.302Z,3.02
2023-02-02T20:10:54.608Z,3.09
2023-02-02T20:13:56.297Z,3.10
2023-02-02T20:17:01.010Z,3.15
2023-02-02T20:20:13.957Z,3.18
2023-02-02T20:23:23.319Z,3.23
2023-02-02T20:26:26.359Z,3.31
2023-02-02T20:29:36.498Z,3.34
2023-02-02T20:32:40.955Z,3.39
2023-02-02T20:35:44.474Z,3.44
2023-02-02T20:38:46.118Z,3.50
2023-02-02T20:41:48.405Z,3.52
2023-02-02T20:44:49.906Z,3.57
2023-02-02T20:47:51.790Z,3.65
2023-02-02T20:50:54.748Z,3.77
2023-02-02T20:53:56.709Z,3.93
2023-02-02T20:56:58.584Z,3.98
2023-02-02T21:00:00.253Z,4.01
2023-02-02T21:03:01.820Z,4.21
2023-02-02T21:06:04.944Z,4.31
2023-02-02T21:09:07.846Z,4.35
2023-02-02T21:12:09.574Z,4.44
2023-02-02T21:15:11.443Z,4.52
2023-02-02T21:18:13.072Z,4.61
2023-02-02T21:21:17.026Z,4.68
2023-02-02T21:24:18.760Z,4.69
2023-02-02T21:27:20.760Z,4.73
2023-02-02T21:30:22.461Z,4.82
2023-02-02T21:33:24.242Z,4.83
2023-02-02T21:36:32.128Z,4.89
2023-02-02T21:39:35.203Z,4.98
2023-02-02T21:42:37.608Z,5.03
2023-02-02T21:45:39.577Z,5.12
2023-02-02T21:48:42.053Z,5.18
2023-02-02T21:51:47.786Z,5.20
2023-02-02T21:54:49.615Z,5.22
2023-02-02T21:57:51.392Z,5.26
2023-02-02T22:00:53.724Z,5.34
2023-02-02T22:03:55.232Z,5.37
2023-02-02T22:06:59.530Z,5.39
2023-02-02T22:10:18.307Z,5.41
2023-02-02T22:13:20.978Z,5.43
2023-02-02T22:16:24.965Z,5.51
2023-02-02T22:19:28.245Z,5.51
2023-02-02T22:22:33.904Z,5.53
2023-02-02T22:25:36.581Z,5.52
2023-02-02T22:28:42.240Z,5.57
2023-02-02T22:31:44.027Z,5.59
2023-02-02T22:34:45.836Z,5.62
2023-02-02T22:37:48.823Z,5.62
2023-02-02T22:40:52.693Z,5.61
2023-02-02T22:43:54.485Z,5.62
2023-02-02T22:46:56.321Z,5.66
2023-02-02T22:49:58.413Z,5.69
2023-02-02T22:53:01.339Z,5.70
2023-02-02T22:56:03.250Z,5.70
2023-02-02T22:59:04.822Z,5.72
2023-02-02T23:02:07.107Z,5.73
2023-02-02T23:05:10.075Z,5.76
2023-02-02T23:08:13.004Z,5.75
2023-02-02T23:11:14.792Z,5.73
2023-02-02T23:14:16.332Z,5.74
2023-02-02T23:17:17.922Z,5.75
2023-02-02T23:20:19.862Z,5.77
2023-02-02T23:23:23.076Z,5.77
2023-02-02T23:26:24.631Z,5.81
2023-02-02T23:29:26.746Z,5.80
2023-02-02T23:32:28.594Z,5.79
2023-02-02T23:35:30.155Z,5.82
2023-02-02T23:38:33.344Z,5.82
2023-02-02T23:41:34.893Z,5.83
2023-02-02T23:44:36.508Z,5.85
2023-02-02T23:47:38.431Z,5.86
2023-02-02T23:50:40.366Z,5.87
2023-02-02T23:53:43.896Z,5.88
2023-02-02T23:56:45.469Z,5.89
2023-02-02T23:59:47.076Z,5.90
